Time;durP1;ratioP1;P1;durP2;ratioP2;P2;SDS_P1;SDS_P2;PMS_P1;PMS_P2;Temp;Humidity;BMP_temperature;BMP_pressure;BME280_temperature;BME280_humidity;BME280_pressure;Samples;Min_cycle;Max_cycle;Signal;HPM_P1;HPM_P2
2023/06/02 00:07:28;;;;;;;10.68;5.00;;;;;;;;;;5075352;28;20502;-64
2023/06/02 00:09:55;;;;;;;11.48;5.00;;;;;;;;;;5087128;28;20467;-64
2023/06/02 00:12:20;;;;;;;9.32;5.22;;;;;;;;;;5112169;28;20040;-65
2023/06/02 00:14:48;;;;;;;9.38;4.22;;;;;;;;;;5111161;28;20639;-65
2023/06/02 00:17:13;;;;;;;6.65;4.60;;;;;;;;;;5111487;28;20016;-64
2023/06/02 00:19:42;;;;;;;4.90;3.70;;;;;;;;;;5110782;28;20034;-65
2023/06/02 00:22:08;;;;;;;6.60;4.45;;;;;;;;;;5111860;28;20023;-65
2023/06/02 00:24:33;;;;;;;7.95;4.18;;;;;;;;;;5110214;28;20024;-65
2023/06/02 00:26:58;;;;;;;6.22;4.00;;;;;;;;;;5111487;28;20022;-63
2023/06/02 00:29:24;;;;;;;9.65;5.20;;;;;;;;;;5110965;28;20068;-64
2023/06/02 00:31:49;;;;;;;7.82;4.32;;;;;;;;;;5108819;28;20427;-65
2023/06/02 00:34:14;;;;;;;9.27;4.63;;;;;;;;;;5096324;28;21401;-64
2023/06/02 00:36:40;;;;;;;8.10;3.78;;;;;;;;;;5095224;28;20039;-64
2023/06/02 00:39:05;;;;;;;5.90;3.88;;;;;;;;;;5099720;28;20391;-64
2023/06/02 00:41:31;;;;;;;8.10;3.58;;;;;;;;;;5102323;28;20057;-64
2023/06/02 00:43:56;;;;;;;10.27;3.63;;;;;;;;;;5091112;28;20429;-64
2023/06/02 00:46:22;;;;;;;13.70;4.68;;;;;;;;;;5091455;28;20039;-64
2023/06/02 00:48:48;;;;;;;11.88;3.40;;;;;;;;;;5095316;28;20076;-63
2023/06/02 00:51:13;;;;;;;6.22;3.38;;;;;;;;;;5107802;28;20016;-63
2023/06/02 00:53:39;;;;;;;6.75;4.25;;;;;;;;;;5091286;28;20429;-64
2023/06/02 00:56:04;;;;;;;6.20;3.72;;;;;;;;;;5094730;28;20053;-64
2023/06/02 00:58:30;;;;;;;4.65;3.30;;;;;;;;;;5100891;28;20024;-64
2023/06/02 01:00:55;;;;;;;7.25;3.92;;;;;;;;;;5107840;28;20032;-64
2023/06/02 01:03:21;;;;;;;12.90;4.28;;;;;;;;;;5110362;28;20035;-64
2023/06/02 01:05:48;;;;;;;6.63;4.28;;;;;;;;;;5107777;28;20024;-64
2023/06/02 01:08:14;;;;;;;6.75;3.85;;;;;;;;;;5097190;28;20470;-67
2023/06/02 01:10:40;;;;;;;7.47;4.10;;;;;;;;;;5100764;28;20107;-64
2023/06/02 01:13:05;;;;;;;12.68;5.22;;;;;;;;;;5095266;28;20098;-64
2023/06/02 01:15:31;;;;;;;9.30;3.88;;;;;;;;;;5101327;28;20028;-65
2023/06/02 01:17:57;;;;;;;9.77;3.92;;;;;;;;;;5097134;28;20103;-65
2023/06/02 01:20:23;;;;;;;8.13;4.25;;;;;;;;;;5110199;28;20032;-64
2023/06/02 01:22:53;;;;;;;7.38;4.57;;;;;;;;;;5105660;28;20374;-64
2023/06/02 01:25:22;;;;;;;8.15;4.45;;;;;;;;;;5097085;28;20039;-64
2023/06/02 01:27:48;;;;;;;7.57;4.90;;;;;;;;;;5110345;28;20031;-64
2023/06/02 01:30:13;;;;;;;8.15;4.20;;;;;;;;;;5109218;28;20022;-65
2023/06/02 01:32:41;;;;;;;7.70;4.30;;;;;;;;;;5082987;28;20108;-64
2023/06/02 01:35:09;;;;;;;7.63;4.60;;;;;;;;;;5062698;28;20012;-64
2023/06/02 01:37:36;;;;;;;11.25;4.50;;;;;;;;;;5063251;28;20012;-64
2023/06/02 01:40:03;;;;;;;9.68;4.28;;;;;;;;;;5096358;28;20032;-64
2023/06/02 01:42:29;;;;;;;8.48;4.30;;;;;;;;;;5113697;28;20028;-64
2023/06/02 01:44:55;;;;;;;6.82;4.05;;;;;;;;;;5112778;28;20038;-65
2023/06/02 01:47:21;;;;;;;7.28;4.10;;;;;;;;;;5112212;28;20420;-64
2023/06/02 01:49:46;;;;;;;7.03;4.45;;;;;;;;;;5113152;28;20026;-64
2023/06/02 01:52:11;;;;;;;6.63;4.13;;;;;;;;;;5112402;28;20466;-64
2023/06/02 01:54:36;;;;;;;7.18;4.00;;;;;;;;;;5086671;28;20606;-63
2023/06/02 01:57:02;;;;;;;6.30;3.93;;;;;;;;;;5105456;28;20020;-64
2023/06/02 01:59:27;;;;;;;11.20;4.45;;;;;;;;;;5112836;28;20265;-63
2023/06/02 02:01:53;;;;;;;9.50;4.35;;;;;;;;;;5112552;28;20110;-64
2023/06/02 02:04:18;;;;;;;10.02;4.75;;;;;;;;;;5113361;28;20467;-63
2023/06/02 02:06:49;;;;;;;6.72;4.25;;;;;;;;;;5111535;28;20491;-63
2023/06/02 02:09:14;;;;;;;8.63;4.70;;;;;;;;;;5112351;28;20024;-63
2023/06/02 02:11:40;;;;;;;8.32;4.25;;;;;;;;;;5110882;28;20023;-63
2023/06/02 02:14:05;;;;;;;9.77;4.78;;;;;;;;;;5111747;28;20015;-63
2023/06/02 02:16:30;;;;;;;10.25;5.22;;;;;;;;;;5110596;28;20377;-63
2023/06/02 02:18:56;;;;;;;12.37;4.60;;;;;;;;;;5112109;28;20016;-64
2023/06/02 02:21:21;;;;;;;14.43;5.18;;;;;;;;;;5100059;28;20261;-63
2023/06/02 02:23:47;;;;;;;11.13;4.30;;;;;;;;;;5064249;28;20903;-63
2023/06/02 02:26:12;;;;;;;11.07;4.85;;;;;;;;;;5067148;28;20019;-63
2023/06/02 02:28:37;;;;;;;12.45;5.00;;;;;;;;;;5058950;28;20035;-63
2023/06/02 02:31:04;;;;;;;16.10;4.68;;;;;;;;;;5066544;28;20047;-64
2023/06/02 02:33:30;;;;;;;13.10;4.60;;;;;;;;;;5067865;28;20023;-64
2023/06/02 02:35:55;;;;;;;9.60;4.75;;;;;;;;;;5064713;28;20084;-64
2023/06/02 02:38:20;;;;;;;12.85;4.70;;;;;;;;;;5064618;28;20783;-64
2023/06/02 02:40:45;;;;;;;9.50;4.63;;;;;;;;;;5065682;28;20028;-64
2023/06/02 02:43:11;;;;;;;10.52;4.90;;;;;;;;;;5058350;28;20269;-64
2023/06/02 02:45:36;;;;;;;8.82;4.88;;;;;;;;;;5062610;28;20958;-64
2023/06/02 02:48:01;;;;;;;10.52;4.60;;;;;;;;;;5062150;28;20862;-64
2023/06/02 02:50:27;;;;;;;9.00;4.68;;;;;;;;;;5064207;28;20127;-64
2023/06/02 02:52:52;;;;;;;8.02;4.82;;;;;;;;;;5064023;28;20035;-64
2023/06/02 02:55:17;;;;;;;9.00;4.53;;;;;;;;;;5056394;28;20023;-63
2023/06/02 02:57:43;;;;;;;11.25;5.55;;;;;;;;;;5062517;28;20308;-64
2023/06/02 03:00:09;;;;;;;9.23;5.35;;;;;;;;;;5045778;28;20051;-64
2023/06/02 03:02:34;;;;;;;12.30;4.93;;;;;;;;;;5075413;28;20031;-64
2023/06/02 03:05:02;;;;;;;8.82;5.35;;;;;;;;;;5096739;28;20384;-63
2023/06/02 03:07:28;;;;;;;8.88;5.68;;;;;;;;;;5093061;28;20043;-64
2023/06/02 03:09:53;;;;;;;8.13;5.00;;;;;;;;;;5105276;28;20036;-66
2023/06/02 03:12:18;;;;;;;10.65;5.43;;;;;;;;;;5112087;28;20015;-64
2023/06/02 03:14:43;;;;;;;8.02;4.68;;;;;;;;;;5112690;28;20385;-64
2023/06/02 03:17:09;;;;;;;7.55;4.28;;;;;;;;;;5103235;28;20016;-65
2023/06/02 03:19:34;;;;;;;13.93;5.25;;;;;;;;;;5095466;28;20036;-64
2023/06/02 03:22:00;;;;;;;10.25;5.20;;;;;;;;;;5100783;28;20389;-64
2023/06/02 03:24:25;;;;;;;11.82;5.63;;;;;;;;;;5093125;28;20028;-64
2023/06/02 03:26:55;;;;;;;8.07;5.10;;;;;;;;;;5098341;28;20431;-64
2023/06/02 03:29:20;;;;;;;8.93;4.63;;;;;;;;;;5101819;28;20028;-64
2023/06/02 03:31:46;;;;;;;15.85;4.72;;;;;;;;;;5099732;28;20030;-63
2023/06/02 03:34:11;;;;;;;8.35;4.22;;;;;;;;;;5096003;28;20468;-64
2023/06/02 03:36:37;;;;;;;13.23;4.70;;;;;;;;;;5102459;28;20028;-64
2023/06/02 03:39:05;;;;;;;9.35;4.15;;;;;;;;;;5100050;28;20023;-65
2023/06/02 03:41:30;;;;;;;10.43;5.00;;;;;;;;;;5106729;28;20535;-65
2023/06/02 03:43:56;;;;;;;10.70;5.07;;;;;;;;;;5079782;28;20020;-64
2023/06/02 03:46:21;;;;;;;10.05;4.65;;;;;;;;;;5097460;28;20532;-64
2023/06/02 03:48:47;;;;;;;12.30;4.03;;;;;;;;;;5100291;28;20064;-64
2023/06/02 03:51:12;;;;;;;7.00;4.13;;;;;;;;;;5097359;28;20024;-64
2023/06/02 03:53:37;;;;;;;10.38;5.18;;;;;;;;;;5094748;28;20265;-63
2023/06/02 03:56:02;;;;;;;7.63;4.22;;;;;;;;;;5111880;28;20028;-64
2023/06/02 03:58:28;;;;;;;12.57;4.93;;;;;;;;;;5110450;28;20073;-63
2023/06/02 04:00:54;;;;;;;8.82;4.55;;;;;;;;;;5111951;28;20023;-63
2023/06/02 04:03:21;;;;;;;9.27;4.00;;;;;;;;;;5111138;28;20034;-64
2023/06/02 04:05:46;;;;;;;10.32;4.75;;;;;;;;;;5110889;28;20020;-63
2023/06/02 04:08:14;;;;;;;9.95;5.00;;;;;;;;;;5098771;28;21241;-63
2023/06/02 04:10:39;;;;;;;9.00;4.45;;;;;;;;;;5102368;28;20479;-63
2023/06/02 04:13:05;;;;;;;7.05;4.10;;;;;;;;;;5093200;28;20095;-64
2023/06/02 04:15:30;;;;;;;8.48;4.63;;;;;;;;;;5092614;28;20116;-64
2023/06/02 04:17:55;;;;;;;11.90;4.72;;;;;;;;;;5092279;28;20030;-63
2023/06/02 04:20:20;;;;;;;10.48;4.72;;;;;;;;;;5092710;28;20028;-63
2023/06/02 04:22:45;;;;;;;9.00;4.75;;;;;;;;;;5098864;28;20497;-63
2023/06/02 04:25:11;;;;;;;11.68;4.80;;;;;;;;;;5092417;28;20024;-63
2023/06/02 04:27:36;;;;;;;9.15;4.18;;;;;;;;;;5105078;28;20030;-63
2023/06/02 04:30:02;;;;;;;6.40;3.87;;;;;;;;;;5091901;28;20020;-63
2023/06/02 04:32:27;;;;;;;8.43;4.45;;;;;;;;;;5091139;28;20274;-64
2023/06/02 04:34:52;;;;;;;10.32;4.32;;;;;;;;;;5105451;28;20034;-63
2023/06/02 04:37:18;;;;;;;10.48;4.30;;;;;;;;;;5092577;28;20035;-64
2023/06/02 04:39:47;;;;;;;15.70;4.88;;;;;;;;;;5101222;28;20024;-64
2023/06/02 04:42:12;;;;;;;14.80;5.25;;;;;;;;;;5110490;28;20386;-64
2023/06/02 04:44:39;;;;;;;11.10;5.18;;;;;;;;;;5111214;28;20019;-64
2023/06/02 04:47:04;;;;;;;17.98;4.82;;;;;;;;;;5095676;28;20020;-64
2023/06/02 04:49:30;;;;;;;11.55;4.72;;;;;;;;;;5091419;28;20032;-64
2023/06/02 04:51:55;;;;;;;12.05;4.35;;;;;;;;;;5093447;28;20023;-64
2023/06/02 04:54:20;;;;;;;9.65;4.63;;;;;;;;;;5102909;28;20028;-64
2023/06/02 04:56:46;;;;;;;14.80;5.00;;;;;;;;;;5093540;28;20161;-64
2023/06/02 04:59:11;;;;;;;16.52;4.40;;;;;;;;;;5091626;28;20141;-64
2023/06/02 05:01:37;;;;;;;15.77;4.43;;;;;;;;;;5094951;28;20028;-64
2023/06/02 05:04:03;;;;;;;12.50;5.60;;;;;;;;;;5093065;28;20039;-64
2023/06/02 05:06:30;;;;;;;15.25;4.55;;;;;;;;;;5064683;28;20024;-63
2023/06/02 05:08:55;;;;;;;10.02;4.90;;;;;;;;;;5063476;28;20043;-64
2023/06/02 05:11:20;;;;;;;13.30;4.97;;;;;;;;;;5098599;28;20027;-64
2023/06/02 05:13:46;;;;;;;14.93;4.53;;;;;;;;;;5109913;28;20016;-64
2023/06/02 05:16:12;;;;;;;12.20;5.23;;;;;;;;;;5113030;28;20378;-64
2023/06/02 05:18:37;;;;;;;11.25;4.78;;;;;;;;;;5113300;28;20269;-64
2023/06/02 05:21:02;;;;;;;13.32;4.35;;;;;;;;;;5114434;28;20030;-64
2023/06/02 05:23:28;;;;;;;17.15;5.00;;;;;;;;;;5100651;28;20494;-64
2023/06/02 05:25:53;;;;;;;11.23;4.78;;;;;;;;;;5113948;28;20030;-64
2023/06/02 05:28:18;;;;;;;17.80;5.22;;;;;;;;;;5109243;28;20024;-64
2023/06/02 05:30:44;;;;;;;10.43;4.55;;;;;;;;;;5094364;28;20069;-64
2023/06/02 05:33:09;;;;;;;12.23;4.80;;;;;;;;;;5094269;28;20042;-64
2023/06/02 05:35:34;;;;;;;14.57;5.20;;;;;;;;;;5094649;28;20293;-64
2023/06/02 05:37:59;;;;;;;11.43;4.80;;;;;;;;;;5102463;28;20467;-64
2023/06/02 05:40:25;;;;;;;9.85;4.75;;;;;;;;;;5096865;28;20059;-63
2023/06/02 05:42:50;;;;;;;22.58;5.35;;;;;;;;;;5092209;28;20165;-64
2023/06/02 05:45:15;;;;;;;13.17;5.33;;;;;;;;;;5094990;28;20016;-64
2023/06/02 05:47:41;;;;;;;11.52;4.95;;;;;;;;;;5097236;28;20309;-64
2023/06/02 05:50:06;;;;;;;15.82;5.38;;;;;;;;;;5095196;28;20039;-64
2023/06/02 05:52:31;;;;;;;11.30;5.10;;;;;;;;;;5108790;28;20027;-64
2023/06/02 05:54:57;;;;;;;16.15;5.68;;;;;;;;;;5103310;28;20538;-63
2023/06/02 05:57:22;;;;;;;12.00;5.50;;;;;;;;;;5111638;28;20023;-64
2023/06/02 05:59:47;;;;;;;11.23;5.28;;;;;;;;;;5112477;28;20027;-63
2023/06/02 06:02:12;;;;;;;11.88;5.47;;;;;;;;;;5110402;28;20375;-64
2023/06/02 06:04:37;;;;;;;12.25;5.57;;;;;;;;;;5098169;28;20052;-64
2023/06/02 06:07:03;;;;;;;9.90;5.03;;;;;;;;;;5100835;28;20095;-64
2023/06/02 06:09:28;;;;;;;12.85;4.75;;;;;;;;;;5099845;28;20020;-64
2023/06/02 06:11:53;;;;;;;14.55;5.57;;;;;;;;;;5105725;28;20024;-64
2023/06/02 06:14:19;;;;;;;11.65;5.50;;;;;;;;;;5101609;28;20024;-64
2023/06/02 06:16:44;;;;;;;13.20;5.07;;;;;;;;;;5102083;28;20024;-64
2023/06/02 06:19:10;;;;;;;12.80;5.47;;;;;;;;;;5111470;28;20115;-64
2023/06/02 06:21:36;;;;;;;16.25;5.60;;;;;;;;;;5108857;28;20035;-64
2023/06/02 06:24:02;;;;;;;11.38;4.85;;;;;;;;;;5111389;28;20020;-64
2023/06/02 06:26:27;;;;;;;12.30;4.80;;;;;;;;;;5109629;28;20030;-64
2023/06/02 06:28:52;;;;;;;10.18;5.60;;;;;;;;;;5113224;28;20043;-64
2023/06/02 06:31:17;;;;;;;13.38;5.00;;;;;;;;;;5108312;28;20018;-64
2023/06/02 06:33:43;;;;;;;12.95;5.30;;;;;;;;;;5104827;28;20529;-64
2023/06/02 06:36:09;;;;;;;14.60;5.53;;;;;;;;;;5103002;28;20134;-64
2023/06/02 06:38:34;;;;;;;15.93;6.20;;;;;;;;;;5104535;28;20265;-64
2023/06/02 06:40:59;;;;;;;15.80;5.37;;;;;;;;;;5105994;28;20447;-64
2023/06/02 06:43:25;;;;;;;15.23;6.10;;;;;;;;;;5094427;28;20323;-64
2023/06/02 06:45:51;;;;;;;11.07;5.15;;;;;;;;;;5096483;28;20319;-64
2023/06/02 06:48:16;;;;;;;11.68;5.63;;;;;;;;;;5094089;28;20055;-64
2023/06/02 06:50:41;;;;;;;16.23;5.87;;;;;;;;;;5097232;28;20028;-64
2023/06/02 06:53:07;;;;;;;12.52;5.43;;;;;;;;;;5094998;28;20357;-64
2023/06/02 06:55:33;;;;;;;17.52;4.72;;;;;;;;;;5094328;28;20031;-63
2023/06/02 06:57:58;;;;;;;11.75;5.07;;;;;;;;;;5096176;28;20082;-64
2023/06/02 07:00:24;;;;;;;12.50;4.80;;;;;;;;;;5100064;28;20019;-64
2023/06/02 07:02:49;;;;;;;17.95;5.80;;;;;;;;;;5097204;28;20020;-64
2023/06/02 07:05:15;;;;;;;18.58;5.85;;;;;;;;;;5102299;28;20068;-63
2023/06/02 07:07:40;;;;;;;9.50;4.95;;;;;;;;;;5097544;28;20036;-63
2023/06/02 07:10:06;;;;;;;24.30;6.03;;;;;;;;;;5112307;28;20024;-64
2023/06/02 07:12:31;;;;;;;14.00;5.90;;;;;;;;;;5104757;28;20023;-64
2023/06/02 07:14:56;;;;;;;15.95;6.40;;;;;;;;;;5103509;28;20023;-64
2023/06/02 07:17:21;;;;;;;13.70;5.68;;;;;;;;;;5105584;28;20102;-64
2023/06/02 07:19:47;;;;;;;21.23;5.93;;;;;;;;;;5112738;28;20494;-64
2023/06/02 07:22:12;;;;;;;14.60;5.72;;;;;;;;;;5099055;28;20574;-64
2023/06/02 07:24:37;;;;;;;16.55;5.85;;;;;;;;;;5105459;28;20046;-64
2023/06/02 07:27:03;;;;;;;13.15;5.57;;;;;;;;;;5097920;28;20052;-64
2023/06/02 07:29:28;;;;;;;16.98;5.10;;;;;;;;;;5092870;28;20049;-64
2023/06/02 07:31:54;;;;;;;13.05;5.65;;;;;;;;;;5112233;28;20020;-64
2023/06/02 07:34:19;;;;;;;13.55;5.20;;;;;;;;;;5096895;28;20028;-63
2023/06/02 07:36:47;;;;;;;9.55;4.68;;;;;;;;;;5111504;28;20474;-63
2023/06/02 07:39:13;;;;;;;15.07;6.53;;;;;;;;;;5110034;28;20068;-64
2023/06/02 07:41:38;;;;;;;11.95;4.75;;;;;;;;;;5105091;28;20023;-64
2023/06/02 07:44:04;;;;;;;14.45;4.57;;;;;;;;;;5099355;28;20070;-65
2023/06/02 07:46:29;;;;;;;14.32;4.95;;;;;;;;;;5102629;28;20012;-65
2023/06/02 07:48:55;;;;;;;15.73;5.35;;;;;;;;;;5104030;28;20027;-65
2023/06/02 07:51:20;;;;;;;14.15;4.95;;;;;;;;;;5111762;28;20031;-64
2023/06/02 07:53:46;;;;;;;8.80;4.68;;;;;;;;;;5104279;28;20471;-63
2023/06/02 07:56:11;;;;;;;19.85;5.90;;;;;;;;;;5100198;28;20016;-64
2023/06/02 07:58:36;;;;;;;10.38;4.90;;;;;;;;;;5110580;28;20027;-63
2023/06/02 08:01:01;;;;;;;23.67;5.22;;;;;;;;;;5105295;28;20157;-64
2023/06/02 08:03:27;;;;;;;10.40;4.60;;;;;;;;;;5084051;28;20429;-64
2023/06/02 08:05:52;;;;;;;12.07;5.18;;;;;;;;;;5100375;28;20024;-64
2023/06/02 08:08:17;;;;;;;14.95;5.30;;;;;;;;;;5106358;28;20409;-64
2023/06/02 08:10:42;;;;;;;15.20;5.05;;;;;;;;;;5104967;28;20031;-64
2023/06/02 08:13:08;;;;;;;15.48;5.25;;;;;;;;;;5105663;28;20042;-64
2023/06/02 08:15:34;;;;;;;12.15;5.45;;;;;;;;;;5099933;28;20054;-64
2023/06/02 08:18:00;;;;;;;19.33;4.25;;;;;;;;;;5105696;28;20031;-64
2023/06/02 08:20:26;;;;;;;9.23;5.35;;;;;;;;;;5100150;28;20112;-64
2023/06/02 08:22:51;;;;;;;10.60;4.93;;;;;;;;;;5111745;28;20485;-64
2023/06/02 08:25:17;;;;;;;11.30;5.25;;;;;;;;;;5105647;28;20601;-64
2023/06/02 08:27:44;;;;;;;7.65;4.10;;;;;;;;;;5107452;28;20367;-64
2023/06/02 08:30:10;;;;;;;16.30;5.97;;;;;;;;;;5104003;28;20024;-64
2023/06/02 08:32:35;;;;;;;13.48;5.28;;;;;;;;;;5104086;28;20484;-64
2023/06/02 08:35:01;;;;;;;12.27;5.25;;;;;;;;;;5101364;28;20035;-64
2023/06/02 08:37:27;;;;;;;34.88;6.20;;;;;;;;;;5097714;28;20039;-64
2023/06/02 08:39:52;;;;;;;17.98;5.75;;;;;;;;;;5105723;28;20027;-64
2023/06/02 08:42:17;;;;;;;15.07;5.25;;;;;;;;;;5096443;28;20020;-64
2023/06/02 08:44:44;;;;;;;13.25;5.55;;;;;;;;;;5092669;28;20055;-64
2023/06/02 08:47:11;;;;;;;9.45;4.82;;;;;;;;;;5094169;28;20599;-64
2023/06/02 08:49:37;;;;;;;8.48;4.80;;;;;;;;;;5102554;28;20028;-64
2023/06/02 08:52:05;;;;;;;9.13;5.07;;;;;;;;;;5110438;28;20480;-64
2023/06/02 08:54:30;;;;;;;13.15;5.50;;;;;;;;;;5111620;28;20020;-64
2023/06/02 08:56:57;;;;;;;7.97;5.07;;;;;;;;;;5113583;28;20157;-64
2023/06/02 08:59:23;;;;;;;14.90;5.82;;;;;;;;;;5101906;28;20028;-64
2023/06/02 09:01:49;;;;;;;8.98;5.30;;;;;;;;;;5094257;28;20426;-64
2023/06/02 09:04:14;;;;;;;11.82;5.05;;;;;;;;;;5093817;28;20111;-63
2023/06/02 09:06:40;;;;;;;9.15;4.63;;;;;;;;;;5112902;28;20030;-62
2023/06/02 09:09:05;;;;;;;11.93;5.18;;;;;;;;;;5113677;28;21201;-64
2023/06/02 09:11:31;;;;;;;14.02;4.38;;;;;;;;;;5108928;28;20036;-63
2023/06/02 09:13:57;;;;;;;8.57;4.78;;;;;;;;;;5096357;28;20032;-63
2023/06/02 09:16:23;;;;;;;11.27;6.10;;;;;;;;;;5104178;28;20044;-63
2023/06/02 09:18:56;;;;;;;13.27;4.80;;;;;;;;;;5109579;28;20034;-64
2023/06/02 09:21:28;;;;;;;9.75;4.75;;;;;;;;;;5111463;28;20431;-64
2023/06/02 09:23:55;;;;;;;11.63;5.65;;;;;;;;;;5107255;28;20016;-64
2023/06/02 09:26:23;;;;;;;13.57;5.07;;;;;;;;;;5109075;28;20066;-64
2023/06/02 09:29:08;;;;;;;9.90;4.75;;;;;;;;;;5114206;28;20561;-64
2023/06/02 09:31:43;;;;;;;13.07;4.53;;;;;;;;;;5094686;28;20051;-64
2023/06/02 09:34:09;;;;;;;8.07;4.30;;;;;;;;;;5095776;28;20419;-63
2023/06/02 09:36:34;;;;;;;11.65;4.93;;;;;;;;;;5094409;28;20178;-64
2023/06/02 09:39:01;;;;;;;10.18;5.35;;;;;;;;;;5096466;28;20019;-63
2023/06/02 09:41:28;;;;;;;8.75;4.72;;;;;;;;;;5102608;28;20406;-64
2023/06/02 09:43:54;;;;;;;13.07;4.70;;;;;;;;;;5107631;28;20027;-62
2023/06/02 09:46:20;;;;;;;7.43;4.57;;;;;;;;;;5083659;28;20035;-63
2023/06/02 09:48:55;;;;;;;18.77;5.50;;;;;;;;;;5109935;28;20460;-64
2023/06/02 09:51:22;;;;;;;12.68;5.65;;;;;;;;;;5101494;28;20453;-63
2023/06/02 09:53:47;;;;;;;10.75;4.75;;;;;;;;;;5112214;28;20466;-63
2023/06/02 09:56:13;;;;;;;23.02;5.35;;;;;;;;;;5103461;28;20065;-63
2023/06/02 09:58:38;;;;;;;16.42;5.70;;;;;;;;;;5107568;28;20066;-63
2023/06/02 10:01:04;;;;;;;14.02;5.45;;;;;;;;;;5103275;28;20431;-63
2023/06/02 10:03:29;;;;;;;12.77;4.95;;;;;;;;;;5107653;28;20098;-63
2023/06/02 10:06:09;;;;;;;9.85;4.85;;;;;;;;;;5105938;28;20106;-64
2023/06/02 10:08:53;;;;;;;19.95;5.78;;;;;;;;;;5104087;28;20050;-64
2023/06/02 10:11:33;;;;;;;11.15;4.60;;;;;;;;;;5095418;28;20111;-63
2023/06/02 10:14:18;;;;;;;9.30;4.53;;;;;;;;;;5100326;28;20525;-63
2023/06/02 10:17:01;;;;;;;13.00;5.60;;;;;;;;;;5106393;28;20031;-64
2023/06/02 10:19:45;;;;;;;15.82;6.28;;;;;;;;;;5104611;28;20043;-63
2023/06/02 10:22:16;;;;;;;13.80;5.15;;;;;;;;;;5101957;28;20015;-63
2023/06/02 10:25:00;;;;;;;17.45;5.68;;;;;;;;;;5107533;28;20062;-64
2023/06/02 10:27:33;;;;;;;13.82;5.45;;;;;;;;;;5099966;28;20437;-63
2023/06/02 10:29:59;;;;;;;9.23;4.70;;;;;;;;;;5098274;28;20061;-62
2023/06/02 10:32:40;;;;;;;13.95;5.10;;;;;;;;;;5078572;28;20032;-63
2023/06/02 10:35:07;;;;;;;10.02;4.75;;;;;;;;;;5093318;28;20059;-63
2023/06/02 10:37:34;;;;;;;11.63;5.05;;;;;;;;;;5093306;28;20085;-64
2023/06/02 10:39:59;;;;;;;8.35;4.18;;;;;;;;;;5100794;28;20110;-63
2023/06/02 10:42:25;;;;;;;8.93;4.78;;;;;;;;;;5106537;28;20116;-63
2023/06/02 10:44:52;;;;;;;12.77;5.75;;;;;;;;;;5110016;28;20034;-63
2023/06/02 10:47:17;;;;;;;12.20;4.97;;;;;;;;;;5106393;28;20497;-64
2023/06/02 10:50:02;;;;;;;9.50;5.50;;;;;;;;;;5109318;28;20027;-63
2023/06/02 10:52:27;;;;;;;;;;;;;;;;;;5106994;28;20281;-63
2023/06/02 10:55:07;;;;;;;10.57;4.70;;;;;;;;;;5104943;28;19908;-64
2023/06/02 10:57:48;;;;;;;16.23;5.57;;;;;;;;;;5107932;28;20462;-64
2023/06/02 11:00:45;;;;;;;11.52;4.95;;;;;;;;;;5102481;28;20028;-63
2023/06/02 11:03:13;;;;;;;15.70;5.20;;;;;;;;;;5103609;28;20024;-64
2023/06/02 11:05:39;;;;;;;12.40;6.03;;;;;;;;;;5091408;28;20024;-64
2023/06/02 11:08:18;;;;;;;13.05;5.40;;;;;;;;;;5102839;28;20035;-64
2023/06/02 11:10:47;;;;;;;22.98;6.30;;;;;;;;;;5101143;28;20031;-64
2023/06/02 11:13:13;;;;;;;11.63;5.70;;;;;;;;;;5102361;28;20021;-64
2023/06/02 11:15:41;;;;;;;12.75;5.85;;;;;;;;;;5106887;28;20016;-64
2023/06/02 11:18:21;;;;;;;15.75;4.88;;;;;;;;;;5102273;28;20024;-64
2023/06/02 11:20:46;;;;;;;11.57;5.47;;;;;;;;;;5103678;28;20024;-64
2023/06/02 11:23:12;;;;;;;9.20;4.88;;;;;;;;;;5103968;28;20030;-62
2023/06/02 11:25:37;;;;;;;11.20;5.30;;;;;;;;;;5104569;28;20028;-63
2023/06/02 11:28:02;;;;;;;11.65;5.90;;;;;;;;;;5106784;28;20230;-64
2023/06/02 11:30:28;;;;;;;11.63;5.28;;;;;;;;;;5094584;28;20093;-64
2023/06/02 11:32:53;;;;;;;8.32;5.10;;;;;;;;;;5095833;28;20027;-64
2023/06/02 11:35:19;;;;;;;12.47;5.60;;;;;;;;;;5095041;28;20069;-64
2023/06/02 11:37:59;;;;;;;19.20;6.07;;;;;;;;;;5095875;28;20305;-63
2023/06/02 11:40:27;;;;;;;13.02;5.18;;;;;;;;;;5105832;28;20031;-63
2023/06/02 11:42:53;;;;;;;11.90;5.57;;;;;;;;;;5092203;28;20077;-63
2023/06/02 11:45:22;;;;;;;13.65;6.55;;;;;;;;;;5106195;28;20023;-64
2023/06/02 11:47:54;;;;;;;9.77;5.50;;;;;;;;;;5092046;28;20028;-64
2023/06/02 11:50:20;;;;;;;11.13;5.78;;;;;;;;;;5094831;28;20405;-63
2023/06/02 11:52:45;;;;;;;12.77;5.88;;;;;;;;;;5102419;28;20110;-63
2023/06/02 11:55:10;;;;;;;15.20;5.95;;;;;;;;;;5092536;28;20394;-63
2023/06/02 11:57:36;;;;;;;12.02;5.95;;;;;;;;;;5091690;28;20063;-63
2023/06/02 12:00:06;;;;;;;15.05;5.85;;;;;;;;;;5092205;28;20032;-63
2023/06/02 12:02:31;;;;;;;9.80;5.60;;;;;;;;;;5102344;28;20489;-62
2023/06/02 12:04:57;;;;;;;14.85;6.28;;;;;;;;;;5094888;28;20026;-62
2023/06/02 12:07:26;;;;;;;20.40;6.60;;;;;;;;;;5091694;28;20524;-63
2023/06/02 12:09:52;;;;;;;12.80;5.53;;;;;;;;;;5105465;28;20255;-63
2023/06/02 12:12:18;;;;;;;12.85;6.38;;;;;;;;;;5102511;28;20042;-64
2023/06/02 12:14:43;;;;;;;14.30;5.72;;;;;;;;;;5098007;28;20508;-64
2023/06/02 12:17:08;;;;;;;14.50;6.47;;;;;;;;;;5100147;28;20016;-64
2023/06/02 12:19:33;;;;;;;10.83;6.27;;;;;;;;;;5104916;28;20047;-64
2023/06/02 12:22:06;;;;;;;14.13;6.07;;;;;;;;;;5101963;28;20145;-63
2023/06/02 12:24:33;;;;;;;13.85;5.80;;;;;;;;;;5093412;28;20274;-64
2023/06/02 12:26:59;;;;;;;16.17;6.13;;;;;;;;;;5102388;28;20080;-64
2023/06/02 12:29:24;;;;;;;13.13;5.25;;;;;;;;;;5105833;28;20405;-64
2023/06/02 12:31:56;;;;;;;14.05;6.25;;;;;;;;;;5110885;28;20037;-66
2023/06/02 12:34:21;;;;;;;12.80;6.18;;;;;;;;;;5100499;28;20539;-64
2023/06/02 12:36:46;;;;;;;16.20;6.05;;;;;;;;;;5110404;28;20019;-65
2023/06/02 12:39:11;;;;;;;16.90;6.53;;;;;;;;;;5098008;28;20052;-64
2023/06/02 12:41:37;;;;;;;12.77;6.77;;;;;;;;;;5095242;28;20533;-64
2023/06/02 12:44:02;;;;;;;10.73;5.90;;;;;;;;;;5098667;28;20261;-64
2023/06/02 12:46:27;;;;;;;21.50;6.37;;;;;;;;;;5095006;28;20105;-64
2023/06/02 12:48:53;;;;;;;10.43;5.65;;;;;;;;;;5095118;28;20431;-64
2023/06/02 12:51:18;;;;;;;13.15;7.30;;;;;;;;;;5097257;28;20031;-64
2023/06/02 12:53:43;;;;;;;14.38;6.35;;;;;;;;;;5095376;28;20031;-64
2023/06/02 12:56:09;;;;;;;17.40;5.97;;;;;;;;;;5094389;28;20020;-63
2023/06/02 12:58:34;;;;;;;17.00;5.72;;;;;;;;;;5105685;28;20035;-64
2023/06/02 13:01:00;;;;;;;9.18;5.80;;;;;;;;;;5099475;28;20019;-64
2023/06/02 13:03:26;;;;;;;12.35;5.45;;;;;;;;;;5098385;28;20028;-65
2023/06/02 13:05:58;;;;;;;17.70;5.55;;;;;;;;;;5098145;28;20020;-64
2023/06/02 13:08:24;;;;;;;9.40;5.63;;;;;;;;;;5097402;28;20497;-64
2023/06/02 13:10:50;;;;;;;12.45;6.32;;;;;;;;;;5098104;28;20023;-65
2023/06/02 13:13:15;;;;;;;9.35;5.18;;;;;;;;;;5110703;28;20489;-64
2023/06/02 13:15:40;;;;;;;12.00;6.10;;;;;;;;;;5110650;28;20035;-65
2023/06/02 13:18:06;;;;;;;23.77;6.50;;;;;;;;;;5110826;28;20120;-64
2023/06/02 13:20:31;;;;;;;14.10;6.03;;;;;;;;;;5110770;28;20282;-64
2023/06/02 13:22:56;;;;;;;18.43;5.53;;;;;;;;;;5110401;28;20471;-63
2023/06/02 13:25:22;;;;;;;15.18;5.72;;;;;;;;;;5104988;28;20687;-63
2023/06/02 13:27:48;;;;;;;9.93;6.03;;;;;;;;;;5104218;28;20059;-63
2023/06/02 13:30:15;;;;;;;11.93;5.13;;;;;;;;;;5096919;28;20063;-64
2023/06/02 13:32:43;;;;;;;16.75;6.35;;;;;;;;;;5102320;28;20330;-64
2023/06/02 13:35:15;;;;;;;12.88;6.63;;;;;;;;;;5094854;28;20061;-64
2023/06/02 13:37:41;;;;;;;18.35;5.90;;;;;;;;;;5112994;28;20023;-63
2023/06/02 13:40:11;;;;;;;14.48;7.03;;;;;;;;;;5109759;28;20124;-64
2023/06/02 13:42:37;;;;;;;15.48;5.90;;;;;;;;;;5094666;28;20036;-64
2023/06/02 13:45:02;;;;;;;9.93;5.63;;;;;;;;;;5102473;28;20026;-63
2023/06/02 13:47:28;;;;;;;11.23;5.90;;;;;;;;;;5102809;28;20269;-64
2023/06/02 13:49:53;;;;;;;12.93;6.77;;;;;;;;;;5106308;28;20083;-64
2023/06/02 13:52:18;;;;;;;9.17;6.23;;;;;;;;;;5109016;28;20275;-64
2023/06/02 13:54:44;;;;;;;11.57;6.70;;;;;;;;;;5112466;28;20265;-63
2023/06/02 13:57:09;;;;;;;11.07;6.50;;;;;;;;;;5099314;28;20780;-64
2023/06/02 13:59:34;;;;;;;14.73;6.65;;;;;;;;;;5101503;28;20015;-64
2023/06/02 14:02:00;;;;;;;12.43;6.13;;;;;;;;;;5094132;28;20474;-64
2023/06/02 14:04:25;;;;;;;12.95;5.68;;;;;;;;;;5102712;28;20265;-64
2023/06/02 14:06:51;;;;;;;14.02;6.70;;;;;;;;;;5102596;28;20065;-64
2023/06/02 14:09:16;;;;;;;16.27;6.43;;;;;;;;;;5107471;28;20030;-64
2023/06/02 14:11:43;;;;;;;11.98;6.30;;;;;;;;;;5107223;28;20099;-63
2023/06/02 14:14:08;;;;;;;12.05;5.80;;;;;;;;;;5104776;28;21218;-64
2023/06/02 14:16:34;;;;;;;9.48;6.25;;;;;;;;;;5106073;28;20030;-63
2023/06/02 14:18:59;;;;;;;15.82;6.68;;;;;;;;;;5103206;28;20036;-64
2023/06/02 14:21:24;;;;;;;15.23;6.75;;;;;;;;;;5098015;28;20078;-64
2023/06/02 14:23:50;;;;;;;9.93;6.55;;;;;;;;;;5098979;28;20028;-63
2023/06/02 14:26:16;;;;;;;9.95;6.20;;;;;;;;;;5098735;28;20391;-64
2023/06/02 14:28:41;;;;;;;12.18;7.05;;;;;;;;;;5077176;28;20343;-63
2023/06/02 14:31:06;;;;;;;13.57;6.68;;;;;;;;;;5095223;28;20032;-65
2023/06/02 14:33:31;;;;;;;7.90;6.33;;;;;;;;;;5096304;28;20039;-64
2023/06/02 14:35:57;;;;;;;18.73;7.00;;;;;;;;;;5096373;28;20304;-64